Flight Track Log - Related Links

Times and Time Zones

All times are in EDT time to prevent confusion due to time zone crossing. See the N1570N flight status page for this flight to view local times or setup timezone preferences in your user account.

Time Position Orientation Groundspeed Altitude Reporting Facility
EDT Latitude Longitude Course Direction KTS MPH feet Rate Location/Type
Wed 07:32:14 PM 38.8500 -94.7167 142° Southeast 144 166 1,900  Level Kansas City TRACON
Wed 07:32:50 PM 38.8358 -94.7119 165° South 147 169 2,400 735 Climbing Kansas City Center
Wed 07:33:52 PM 38.7894 -94.7089 177° South 147 169 3,100 774 Climbing Kansas City Center
Wed 07:34:54 PM 38.7481 -94.6894 160° South 162 186 4,000 823 Climbing Kansas City Center
Wed 07:35:56 PM 38.7064 -94.6636 154° Southeast 145 167 4,800 484 Climbing Kansas City Center
Wed 07:36:58 PM 38.6781 -94.6233 132° Southeast 161 185 5,000 97 Climbing Kansas City Center
Wed 07:38:00 PM 38.6261 -94.5736 143° Southeast 205 236 5,000  Level Kansas City Center
Wed 07:39:02 PM 38.5847 -94.5325 142° Southeast 202 232 5,000  Level Kansas City Center
Wed 07:40:04 PM 38.5431 -94.4911 142° Southeast 199 229 5,000  Level Kansas City Center
Wed 07:41:06 PM 38.4942 -94.4428 142° Southeast 197 227 5,000  Level Kansas City Center
Wed 07:42:08 PM 38.4683 -94.3842 119° Southeast 197 227 5,000  Level Kansas City Center
Wed 07:43:10 PM 38.4403 -94.3144 117° Southeast 200 230 5,000  Level Kansas City Center
Wed 07:44:12 PM 38.4172 -94.2519 115° Southeast 199 229 5,000  Level Kansas City Center
Wed 07:45:14 PM 38.3886 -94.1844 118° Southeast 198 228 5,000  Level Kansas City Center
Wed 07:46:16 PM 38.3636 -94.1272 119° Southeast 195 224 5,000  Level Kansas City Center
Wed 07:47:18 PM 38.3431 -94.0650 113° Southeast 194 223 5,000  Level Kansas City Center
Wed 07:48:20 PM 38.3150 -93.9886 115° Southeast 197 227 5,000  Level Kansas City Center
Wed 07:49:22 PM 38.2925 -93.9272 115° Southeast 193 222 5,000  Level Kansas City Center
Wed 07:50:24 PM 38.2656 -93.8656 119° Southeast 198 228 5,000  Level Kansas City Center
Wed 07:51:26 PM 38.2428 -93.8019 114° Southeast 197 227 5,000  Level Kansas City Center
Wed 07:52:28 PM 38.2197 -93.7386 115° Southeast 197 227 5,000  Level Kansas City Center
Wed 07:53:30 PM 38.1953 -93.6750 116° Southeast 199 229 5,000  Level Kansas City Center
Wed 07:54:32 PM 38.1683 -93.6139 119° Southeast 198 228 5,000  Level Kansas City Center
Wed 07:55:34 PM 38.1386 -93.5378 116° Southeast 200 230 5,000  Level Kansas City Center
Wed 07:56:36 PM 38.1128 -93.4797 119° Southeast 192 221 5,000  Level Kansas City Center
Wed 07:57:38 PM 38.0889 -93.4172 116° Southeast 195 224 5,000  Level Kansas City Center
Wed 07:58:40 PM 38.0544 -93.3658 130° Southeast 195 224 5,000  Level Kansas City Center
Wed 07:59:42 PM 38.0044 -93.3392 157° South 197 227 5,000  Level Kansas City Center
Wed 08:00:44 PM 37.9558 -93.3114 156° South 193 222 5,000  Level Kansas City Center
Wed 08:01:46 PM 37.8981 -93.2806 157° South 189 217 5,000  Level Kansas City Center
Wed 08:02:48 PM 37.8481 -93.2536 157° South 191 220 5,000  Level Kansas City Center
Wed 08:03:50 PM 37.7983 -93.2272 157° South 193 222 5,000  Level Kansas City Center
Wed 08:04:52 PM 37.7494 -93.2003 156° South 193 222 5,000  Level Kansas City Center
Wed 08:05:54 PM 37.6997 -93.1744 158° South 193 222 5,000  Level Kansas City Center
Wed 08:06:56 PM 37.6514 -93.1478 156° South 191 220 5,000  Level Kansas City Center
Wed 08:07:58 PM 37.5922 -93.1161 157° South 192 221 5,000  Level Kansas City Center
Wed 08:09:00 PM 37.5428 -93.0889 156° South 192 221 5,000  Level Kansas City Center
Wed 08:10:01 PM 37.4939 -93.0628 157° South 192 221 5,000  Level Kansas City Center
Wed 08:11:03 PM 37.4444 -93.0369 157° South 192 221 5,000  Level Kansas City Center
Wed 08:12:05 PM 37.3961 -93.0103 156° South 191 220 5,000  Level Kansas City Center
Wed 08:13:07 PM 37.3467 -92.9847 158° South 191 220 5,000  Level Kansas City Center
Wed 08:14:09 PM 37.2981 -92.9586 157° South 191 220 5,000  Level Kansas City Center
Wed 08:15:11 PM 37.2400 -92.9275 157° South 190 219 5,000  Level Kansas City Center
Wed 08:16:13 PM 37.1914 -92.9022 157° South 189 217 5,000  Level Kansas City Center
Wed 08:17:15 PM 37.1411 -92.8761 158° South 192 221 5,000  Level Kansas City Center
Wed 08:18:17 PM 37.0925 -92.8494 156° South 191 220 5,000  Level Kansas City Center
Wed 08:19:18 PM 37.0439 -92.8236 157° South 191 220 5,000  Level Kansas City Center
Wed 08:20:20 PM 36.9950 -92.7978 157° South 190 219 5,000  Level Kansas City Center
Wed 08:21:22 PM 36.9469 -92.7722 157° South 190 219 5,000  Level Kansas City Center
Wed 08:22:24 PM 36.8883 -92.7425 158° South 189 217 5,000  Level Kansas City Center
Wed 08:23:26 PM 36.8414 -92.7161 156° South 187 215 5,000  Level Kansas City Center
Wed 08:24:27 PM 36.7917 -92.6911 158° South 189 217 5,000 -49 Level Kansas City Center
Wed 08:25:29 PM 36.7442 -92.6664 157° South 188 216 4,900 -387 Descending Kansas City Center
Wed 08:26:31 PM 36.6950 -92.6417 158° South 188 216 4,200 -677 Descending Kansas City Center
Wed 08:27:33 PM 36.6444 -92.6144 157° South 192 221 3,500 -677 Descending Kansas City Center

Login

Don't have an account? Register now (free) for customized features, flight alerts, and more!